Terminal Aerodrome Forecast
Issued by NWS Blacksburg, VA

Current Version | Previous Version | Text Only | Print | Product List | Glossary Off
Versions: 1 2 3 4 5 6 7 8 9 10 11 12 13 14 15 16 17

000
FTUS41 KRNK 190520
TAFBLF
TAF
KBLF 190520Z 1906/2006 VRB04KT P6SM SCT008 BKN250
     FM191300 25004KT P6SM SCT150 OVC250
     FM192100 15005KT P6SM BKN150 OVC250=

USA.gov is the U.S. government's official web portal to all federal, state and local government web resources and services.